createdAt,value
2019-02-22T00:01:46.745Z,95348.53
2019-02-22T00:04:19.567Z,95343.42
2019-02-22T00:06:52.637Z,95339.73
2019-02-22T00:09:25.721Z,95339.55
2019-02-22T00:11:58.793Z,95330.08
2019-02-22T00:14:31.885Z,95327.95
2019-02-22T00:17:05.737Z,95318.47
2019-02-22T00:19:38.571Z,95316.68
2019-02-22T00:22:11.697Z,95314.54
2019-02-22T00:24:44.577Z,95314.88
2019-02-22T00:27:18.870Z,95308.09
2019-02-22T00:29:51.827Z,95309.15
2019-02-22T00:32:24.919Z,95299.25
2019-02-22T00:34:57.627Z,95295.22
2019-02-22T00:37:30.333Z,95291.88
2019-02-22T00:40:03.123Z,95286.77
2019-02-22T00:42:36.394Z,95291.88
2019-02-22T00:45:09.170Z,95283.20
2019-02-22T00:47:43.315Z,95282.15
2019-02-22T00:50:16.224Z,95279.87
2019-02-22T00:52:49.023Z,95279.72
2019-02-22T00:55:22.044Z,95274.14
2019-02-22T00:57:55.287Z,95273.30
2019-02-22T01:00:29.399Z,95275.17
2019-02-22T01:03:02.295Z,95271.61
2019-02-22T01:05:35.294Z,95270.29
2019-02-22T01:08:08.190Z,95260.70
2019-02-22T01:10:41.199Z,95255.84
2019-02-22T01:13:14.469Z,95252.98
2019-02-22T01:15:47.425Z,95252.68
2019-02-22T01:18:20.443Z,95255.73
2019-02-22T01:20:54.690Z,95246.72
2019-02-22T01:23:27.769Z,95247.88
2019-02-22T01:26:01.227Z,95249.55
2019-02-22T01:28:34.441Z,95247.80
2019-02-22T01:31:07.460Z,95243.72
2019-02-22T01:33:40.523Z,95233.09
2019-02-22T01:36:13.923Z,95232.67
2019-02-22T01:38:47.411Z,95231.83
2019-02-22T01:41:20.230Z,95235.28
2019-02-22T01:43:53.166Z,95231.33
2019-02-22T01:46:26.210Z,95223.48
2019-02-22T01:48:59.245Z,95214.95
2019-02-22T01:51:32.653Z,95206.17
2019-02-22T01:54:06.028Z,95201.23
2019-02-22T01:56:39.711Z,95200.39
2019-02-22T01:59:12.672Z,95195.07
2019-02-22T02:01:45.819Z,95189.31
2019-02-22T02:04:18.683Z,95184.77
2019-02-22T02:06:51.869Z,95181.12
2019-02-22T02:09:25.308Z,95178.05
2019-02-22T02:11:58.365Z,95165.41
2019-02-22T02:14:31.294Z,95161.36
2019-02-22T02:17:04.151Z,95157.30
2019-02-22T02:19:37.023Z,95161.95
2019-02-22T02:22:09.863Z,95161.91
2019-02-22T02:24:42.970Z,95164.67
2019-02-22T02:27:15.785Z,95164.53
2019-02-22T02:29:48.844Z,95160.89
2019-02-22T02:32:21.878Z,95152.35
2019-02-22T02:34:54.622Z,95154.13
2019-02-22T02:37:27.625Z,95152.77
2019-02-22T02:40:00.673Z,95153.77
2019-02-22T02:42:33.664Z,95148.92
2019-02-22T02:45:06.983Z,95142.95
2019-02-22T02:47:40.186Z,95146.36
2019-02-22T02:50:18.324Z,95137.05
2019-02-22T02:52:51.394Z,95137.85
2019-02-22T02:55:33.244Z,95135.53
2019-02-22T02:58:06.015Z,95130.30
2019-02-22T03:00:39.307Z,95126.59
2019-02-22T03:03:12.223Z,95127.17
2019-02-22T03:06:10.159Z,95123.94
2019-02-22T03:08:44.869Z,95124.05
2019-02-22T03:11:20.978Z,95117.23
2019-02-22T03:13:52.263Z,95113.34
2019-02-22T03:16:25.229Z,95106.69
2019-02-22T03:18:58.325Z,95108.96
2019-02-22T03:21:31.243Z,95108.69
2019-02-22T03:24:05.538Z,95104.09
2019-02-22T03:26:38.426Z,95101.24
2019-02-22T03:29:11.615Z,95092.11
2019-02-22T03:31:44.978Z,95090.15
2019-02-22T03:34:18.006Z,95082.09
2019-02-22T03:36:50.997Z,95072.58
2019-02-22T03:39:23.995Z,95080.64
2019-02-22T03:41:57.101Z,95077.98
2019-02-22T03:44:30.158Z,95082.16
2019-02-22T03:47:03.674Z,95077.73
2019-02-22T03:49:36.675Z,95078.02
2019-02-22T03:52:31.610Z,95074.50
2019-02-22T03:55:05.490Z,95070.81
2019-02-22T03:57:38.498Z,95066.16
2019-02-22T04:00:11.910Z,95059.63
2019-02-22T04:02:44.822Z,95055.95
2019-02-22T04:05:17.736Z,95055.36
2019-02-22T04:07:51.924Z,95050.96
2019-02-22T04:10:24.909Z,95042.16
2019-02-22T04:12:57.929Z,95030.21
2019-02-22T04:15:30.853Z,95029.09
2019-02-22T04:18:03.924Z,95021.15
2019-02-22T04:20:36.863Z,95024.91
2019-02-22T04:23:10.427Z,95027.16
2019-02-22T04:25:43.449Z,95022.06
2019-02-22T04:28:17.649Z,95018.50
2019-02-22T04:30:51.109Z,95016.94
2019-02-22T04:33:24.007Z,95006.25
2019-02-22T04:35:57.037Z,95006.61
2019-02-22T04:38:33.036Z,95009.37
2019-02-22T04:41:05.841Z,95000.72
2019-02-22T04:43:38.918Z,95004.20
2019-02-22T04:46:11.790Z,95001.23
2019-02-22T04:48:45.030Z,94995.03
2019-02-22T04:51:18.676Z,94998.58
2019-02-22T04:53:51.983Z,94994.36
2019-02-22T04:56:25.330Z,94994.45
2019-02-22T04:58:58.058Z,94987.70
2019-02-22T05:01:30.937Z,94988.84
2019-02-22T05:04:04.053Z,94992.52
2019-02-22T05:06:37.249Z,94991.73
2019-02-22T05:09:11.413Z,94990.66
2019-02-22T05:11:45.712Z,94989.19
2019-02-22T05:14:18.858Z,94988.66
2019-02-22T05:16:51.859Z,94986.78
2019-02-22T05:19:25.423Z,94987.91
2019-02-22T05:21:58.645Z,94989.05
2019-02-22T05:24:31.715Z,94989.38
2019-02-22T05:27:05.375Z,94984.87
2019-02-22T05:29:38.503Z,94986.42
2019-02-22T05:32:11.730Z,94984.41
2019-02-22T05:34:44.598Z,94986.27
2019-02-22T05:37:17.856Z,94984.73
2019-02-22T05:39:51.324Z,94985.33
2019-02-22T05:42:24.755Z,94983.73
2019-02-22T05:44:57.914Z,94983.31
2019-02-22T05:47:31.170Z,94981.20
2019-02-22T05:50:04.404Z,94985.68
2019-02-22T05:52:37.879Z,94980.32
2019-02-22T05:55:11.363Z,94981.45
2019-02-22T05:57:44.470Z,94978.70
2019-02-22T06:00:18.638Z,94980.55
2019-02-22T06:02:51.881Z,94972.82
2019-02-22T06:05:25.373Z,94972.05
2019-02-22T06:07:58.445Z,94971.81
2019-02-22T06:10:31.858Z,94973.34
2019-02-22T06:13:04.875Z,94974.09
2019-02-22T06:15:38.057Z,94975.35
2019-02-22T06:18:10.963Z,94977.37
2019-02-22T06:20:44.203Z,94976.59
2019-02-22T06:23:17.346Z,94969.77
2019-02-22T06:25:50.032Z,94970.11
2019-02-22T06:28:23.179Z,94974.28
2019-02-22T06:30:56.097Z,94972.58
2019-02-22T06:33:29.214Z,94968.85
2019-02-22T06:36:02.333Z,94963.57
2019-02-22T06:38:37.474Z,94954.97
2019-02-22T06:41:10.596Z,94953.56
2019-02-22T06:43:43.649Z,94959.62
2019-02-22T06:46:18.245Z,94955.95
2019-02-22T06:48:52.336Z,94949.03
2019-02-22T06:51:25.318Z,94954.13
2019-02-22T06:53:58.575Z,94943.42
2019-02-22T06:56:31.393Z,94942.55
2019-02-22T06:59:04.449Z,94943.50
2019-02-22T07:01:37.588Z,94944.17
2019-02-22T07:04:10.926Z,94937.16
2019-02-22T07:06:44.085Z,94928.81
2019-02-22T07:09:17.260Z,94920.93
2019-02-22T07:11:58.734Z,94914.02
2019-02-22T07:14:33.228Z,94918.00
2019-02-22T07:17:06.871Z,94917.48
2019-02-22T07:19:40.152Z,94918.13
2019-02-22T07:22:13.489Z,94923.73
2019-02-22T07:24:47.114Z,94922.29
2019-02-22T07:27:20.692Z,94921.48
2019-02-22T07:29:54.931Z,94922.02
2019-02-22T07:32:28.278Z,94917.91
2019-02-22T07:35:01.799Z,94912.10
2019-02-22T07:37:35.409Z,94909.06
2019-02-22T07:40:08.947Z,94910.59
2019-02-22T07:42:42.416Z,94910.52
2019-02-22T07:45:16.269Z,94910.84
2019-02-22T07:47:52.717Z,94909.87
2019-02-22T07:50:26.323Z,94907.72
2019-02-22T07:52:59.623Z,94907.84
2019-02-22T07:55:32.599Z,94906.82
2019-02-22T07:58:05.598Z,94903.32
2019-02-22T08:00:38.700Z,94900.67
2019-02-22T08:03:11.686Z,94898.29
2019-02-22T08:05:44.963Z,94891.53
2019-02-22T08:08:18.259Z,94888.59
2019-02-22T08:10:51.672Z,94882.18
2019-02-22T08:13:24.699Z,94882.67
2019-02-22T08:15:58.153Z,94876.85
2019-02-22T08:18:31.569Z,94869.28
2019-02-22T08:21:05.050Z,94867.12
2019-02-22T08:23:38.328Z,94860.62
2019-02-22T08:26:12.800Z,94862.08
2019-02-22T08:28:46.257Z,94861.02
2019-02-22T08:31:19.548Z,94861.63
2019-02-22T08:33:52.709Z,94861.27
2019-02-22T08:36:26.274Z,94858.62
2019-02-22T08:38:59.578Z,94856.37
2019-02-22T08:41:32.825Z,94847.06
2019-02-22T08:44:06.064Z,94855.33
2019-02-22T08:46:39.223Z,94850.52
2019-02-22T08:49:12.293Z,94857.88
2019-02-22T08:51:45.485Z,94852.53
2019-02-22T08:54:19.182Z,94858.90
2019-02-22T08:56:52.117Z,94855.11
2019-02-22T08:59:25.546Z,94850.43
2019-02-22T09:01:58.719Z,94847.48
2019-02-22T09:04:31.793Z,94843.22
2019-02-22T09:07:05.063Z,94843.45
2019-02-22T09:09:38.422Z,94843.20
2019-02-22T09:12:15.063Z,94842.13
2019-02-22T09:14:48.330Z,94837.26
2019-02-22T09:17:21.953Z,94838.16
2019-02-22T09:19:55.105Z,94835.55
2019-02-22T09:22:28.716Z,94835.78
2019-02-22T09:25:02.141Z,94838.55
2019-02-22T09:27:35.993Z,94839.89
2019-02-22T09:30:10.502Z,94837.71
2019-02-22T09:32:44.218Z,94836.66
2019-02-22T09:35:17.760Z,94835.23
2019-02-22T09:37:51.224Z,94835.72
2019-02-22T09:40:24.275Z,94839.26
2019-02-22T09:42:57.334Z,94833.23
2019-02-22T09:45:30.603Z,94835.11
2019-02-22T09:48:03.943Z,94830.55
2019-02-22T09:50:37.186Z,94829.75
2019-02-22T09:53:10.567Z,94832.88
2019-02-22T09:55:44.060Z,94836.05
2019-02-22T09:58:17.185Z,94835.45
2019-02-22T10:00:50.830Z,94824.55
2019-02-22T10:03:23.945Z,94823.13
2019-02-22T10:05:58.007Z,94823.28
2019-02-22T10:08:31.429Z,94817.63
2019-02-22T10:11:05.183Z,94817.59
2019-02-22T10:13:38.267Z,94810.63
2019-02-22T10:16:11.315Z,94807.78
2019-02-22T10:18:46.408Z,94803.96
2019-02-22T10:21:20.582Z,94803.73
2019-02-22T10:23:54.345Z,94796.08
2019-02-22T10:26:27.658Z,94792.30
2019-02-22T10:29:00.806Z,94792.86
2019-02-22T10:31:34.219Z,94789.86
2019-02-22T10:34:07.820Z,94776.76
2019-02-22T10:36:45.146Z,94771.97
2019-02-22T10:39:16.050Z,94769.36
2019-02-22T10:41:49.069Z,94764.13
2019-02-22T10:44:22.310Z,94755.82
2019-02-22T10:46:55.337Z,94758.38
2019-02-22T10:49:28.611Z,94751.75
2019-02-22T10:52:02.022Z,94750.90
2019-02-22T10:54:35.298Z,94747.08
2019-02-22T10:57:08.622Z,94750.58
2019-02-22T10:59:41.834Z,94742.89
2019-02-22T11:02:15.047Z,94742.23
2019-02-22T11:04:48.299Z,94743.30
2019-02-22T11:07:21.408Z,94741.99
2019-02-22T11:09:54.972Z,94733.66
2019-02-22T11:12:28.177Z,94736.61
2019-02-22T11:15:01.238Z,94724.71
2019-02-22T11:17:34.594Z,94721.46
2019-02-22T11:20:08.735Z,94717.91
2019-02-22T11:22:41.929Z,94714.08
2019-02-22T11:25:16.650Z,94712.22
2019-02-22T11:27:49.678Z,94706.39
2019-02-22T11:30:23.030Z,94704.74
2019-02-22T11:32:56.639Z,94703.14
2019-02-22T11:35:29.773Z,94692.39
2019-02-22T11:38:03.405Z,94690.94
2019-02-22T11:40:37.740Z,94693.38
2019-02-22T11:43:11.400Z,94692.48
2019-02-22T11:45:44.648Z,94683.08
2019-02-22T11:48:17.752Z,94676.52
2019-02-22T11:50:50.673Z,94681.27
2019-02-22T11:53:23.700Z,94680.85
2019-02-22T11:55:56.791Z,94675.45
2019-02-22T11:58:29.885Z,94666.77
2019-02-22T12:01:02.951Z,94668.14
2019-02-22T12:03:36.106Z,94658.75
2019-02-22T12:06:09.246Z,94652.98
2019-02-22T12:08:42.243Z,94650.91
2019-02-22T12:11:15.388Z,94648.55
2019-02-22T12:13:48.541Z,94653.38
2019-02-22T12:16:21.374Z,94656.91
2019-02-22T12:18:54.363Z,94652.66
2019-02-22T12:21:27.521Z,94646.22
2019-02-22T12:24:00.925Z,94646.98
2019-02-22T12:26:34.160Z,94633.61
2019-02-22T12:29:08.577Z,94639.00
2019-02-22T12:31:41.598Z,94631.62
2019-02-22T12:34:14.492Z,94637.08
2019-02-22T12:36:48.022Z,94634.95
2019-02-22T12:39:21.213Z,94628.73
2019-02-22T12:41:54.330Z,94639.08
2019-02-22T12:44:27.571Z,94631.45
2019-02-22T12:47:01.190Z,94635.89
2019-02-22T12:49:34.169Z,94638.59
2019-02-22T12:52:07.318Z,94635.25
2019-02-22T12:54:40.516Z,94631.66
2019-02-22T12:57:13.513Z,94634.17
2019-02-22T12:59:46.478Z,94632.38
2019-02-22T13:02:19.517Z,94633.66
2019-02-22T13:04:52.934Z,94639.22
2019-02-22T13:07:26.312Z,94639.12
2019-02-22T13:09:59.461Z,94637.52
2019-02-22T13:12:32.797Z,94634.55
2019-02-22T13:15:13.583Z,94633.28
2019-02-22T13:17:41.380Z,94622.72
2019-02-22T13:20:14.340Z,94629.95
2019-02-22T13:22:47.650Z,94631.25
2019-02-22T13:25:20.837Z,94619.21
2019-02-22T13:27:53.908Z,94626.29
2019-02-22T13:30:27.111Z,94621.45
2019-02-22T13:33:00.298Z,94628.06
2019-02-22T13:35:33.273Z,94626.09
2019-02-22T13:38:06.361Z,94629.84
2019-02-22T13:40:39.570Z,94619.91
2019-02-22T13:43:12.544Z,94620.50
2019-02-22T13:45:45.546Z,94619.75
2019-02-22T13:48:18.570Z,94615.89
2019-02-22T13:50:51.425Z,94615.38
2019-02-22T13:53:24.324Z,94615.42
2019-02-22T13:55:57.222Z,94609.58
2019-02-22T13:58:30.168Z,94600.41
2019-02-22T14:01:03.556Z,94611.28
2019-02-22T14:03:36.678Z,94606.00
2019-02-22T14:06:09.707Z,94610.55
2019-02-22T14:08:42.954Z,94601.12
2019-02-22T14:11:16.343Z,94603.12
2019-02-22T14:13:49.406Z,94599.96
2019-02-22T14:16:22.731Z,94598.45
2019-02-22T14:18:56.176Z,94599.75
2019-02-22T14:21:29.341Z,94592.09
2019-02-22T14:24:03.145Z,94598.56
2019-02-22T14:26:36.320Z,94595.31
2019-02-22T14:29:09.391Z,94596.55
2019-02-22T14:31:42.436Z,94591.90
2019-02-22T14:34:15.281Z,94595.14
2019-02-22T14:36:48.483Z,94597.61
2019-02-22T14:39:21.484Z,94596.58
2019-02-22T14:41:54.424Z,94590.00
2019-02-22T14:44:27.489Z,94593.77
2019-02-22T14:47:01.163Z,94592.80
2019-02-22T14:49:34.436Z,94590.77
2019-02-22T14:52:07.338Z,94592.97
2019-02-22T14:54:40.371Z,94592.88
2019-02-22T14:57:13.396Z,94593.16
2019-02-22T14:59:46.147Z,94588.39
2019-02-22T15:02:19.238Z,94586.42
2019-02-22T15:04:53.193Z,94588.36
2019-02-22T15:07:26.727Z,94587.52
2019-02-22T15:09:59.934Z,94592.78
2019-02-22T15:12:48.884Z,94596.95
2019-02-22T15:15:24.242Z,94594.30
2019-02-22T15:18:00.877Z,94597.45
2019-02-22T15:20:34.007Z,94595.38
2019-02-22T15:23:07.631Z,94592.94
2019-02-22T15:25:40.671Z,94592.36
2019-02-22T15:28:13.904Z,94592.30
2019-02-22T15:30:46.789Z,94594.03
2019-02-22T15:33:20.646Z,94593.61
2019-02-22T15:35:54.015Z,94591.06
2019-02-22T15:38:29.714Z,94594.56
2019-02-22T15:41:03.117Z,94596.70
2019-02-22T15:43:37.486Z,94594.11
2019-02-22T15:46:12.406Z,94599.69
2019-02-22T15:48:45.773Z,94598.27
2019-02-22T15:51:19.401Z,94600.06
2019-02-22T15:53:52.781Z,94604.18
2019-02-22T15:56:26.004Z,94601.50
2019-02-22T15:58:59.091Z,94607.02
2019-02-22T16:01:32.651Z,94612.36
2019-02-22T16:04:30.795Z,94613.20
2019-02-22T16:07:03.823Z,94612.04
2019-02-22T16:09:36.688Z,94612.97
2019-02-22T16:12:11.535Z,94613.66
2019-02-22T16:14:45.008Z,94617.11
2019-02-22T16:17:20.612Z,94625.08
2019-02-22T16:19:55.553Z,94625.65
2019-02-22T16:22:30.607Z,94625.89
2019-02-22T16:25:03.783Z,94628.25
2019-02-22T16:27:37.579Z,94624.27
2019-02-22T16:30:14.545Z,94625.33
2019-02-22T16:32:47.805Z,94627.68
2019-02-22T16:35:21.196Z,94625.08
2019-02-22T16:37:54.802Z,94628.69
2019-02-22T16:40:29.139Z,94634.45
2019-02-22T16:43:03.098Z,94628.81
2019-02-22T16:45:36.801Z,94630.91
2019-02-22T16:48:11.434Z,94622.07
2019-02-22T16:50:45.333Z,94630.67
2019-02-22T16:53:18.799Z,94631.97
2019-02-22T16:55:55.879Z,94633.75
2019-02-22T16:58:30.654Z,94631.52
2019-02-22T17:01:10.807Z,94636.30
2019-02-22T17:03:47.442Z,94640.89
2019-02-22T17:06:24.455Z,94640.03
2019-02-22T17:08:58.681Z,94641.38
2019-02-22T17:11:35.390Z,94640.72
2019-02-22T17:14:09.361Z,94641.00
2019-02-22T17:16:45.746Z,94643.30
2019-02-22T17:19:18.603Z,94644.21
2019-02-22T17:21:52.649Z,94638.08
2019-02-22T17:24:26.053Z,94640.47
2019-02-22T17:26:59.779Z,94650.30
2019-02-22T17:29:33.655Z,94642.47
2019-02-22T17:32:07.155Z,94639.06
2019-02-22T17:34:40.683Z,94640.48
2019-02-22T17:37:14.394Z,94643.44
2019-02-22T17:39:50.438Z,94641.05
2019-02-22T17:42:23.567Z,94641.09
2019-02-22T17:44:57.411Z,94637.89
2019-02-22T17:47:34.291Z,94632.53
2019-02-22T17:50:08.584Z,94634.89
2019-02-22T17:52:42.397Z,94632.62
2019-02-22T17:55:15.980Z,94628.23
2019-02-22T17:57:51.074Z,94627.28
2019-02-22T18:00:25.385Z,94626.31
2019-02-22T18:02:58.659Z,94624.73
2019-02-22T18:05:32.267Z,94626.06
2019-02-22T18:08:05.360Z,94621.33
2019-02-22T18:10:38.689Z,94621.23
2019-02-22T18:13:12.274Z,94615.16
2019-02-22T18:15:45.464Z,94614.78
2019-02-22T18:18:19.183Z,94616.25
2019-02-22T18:23:53.634Z,94607.91
2019-02-22T18:26:29.921Z,94601.47
2019-02-22T18:29:03.119Z,94599.19
2019-02-22T18:31:36.430Z,94601.62
2019-02-22T18:34:09.967Z,94594.36
2019-02-22T18:36:45.414Z,94588.32
2019-02-22T18:39:18.969Z,94589.09
2019-02-22T18:41:52.716Z,94585.23
2019-02-22T18:44:26.345Z,94592.10
2019-02-22T18:47:00.058Z,94586.70
2019-02-22T18:49:33.655Z,94583.69
2019-02-22T18:52:07.206Z,94588.41
2019-02-22T18:54:40.931Z,94586.34
2019-02-22T18:57:14.219Z,94581.30
2019-02-22T18:59:48.482Z,94580.13
2019-02-22T19:02:23.729Z,94586.47
2019-02-22T19:04:57.592Z,94588.53
2019-02-22T19:07:31.653Z,94590.44
2019-02-22T19:10:05.484Z,94586.99
2019-02-22T19:12:39.656Z,94587.84
2019-02-22T19:15:20.261Z,94585.41
2019-02-22T19:18:01.027Z,94585.89
2019-02-22T19:20:34.971Z,94586.59
2019-02-22T19:23:10.016Z,94586.17
2019-02-22T19:25:46.319Z,94586.02
2019-02-22T19:28:19.842Z,94585.08
2019-02-22T19:30:53.854Z,94581.67
2019-02-22T19:33:26.903Z,94584.19
2019-02-22T19:36:00.665Z,94589.30
2019-02-22T19:38:34.168Z,94593.44
2019-02-22T19:41:07.791Z,94591.62
2019-02-22T19:43:42.712Z,94589.39
2019-02-22T19:46:16.286Z,94588.05
2019-02-22T19:48:49.535Z,94588.09
2019-02-22T19:51:23.372Z,94584.72
2019-02-22T19:53:56.612Z,94589.70
2019-02-22T19:56:30.317Z,94584.84
2019-02-22T19:59:04.251Z,94581.63
2019-02-22T20:01:37.903Z,94583.09
2019-02-22T20:04:11.549Z,94582.89
2019-02-22T20:06:45.016Z,94581.09
2019-02-22T20:09:18.450Z,94580.16
2019-02-22T20:11:51.762Z,94576.63
2019-02-22T20:14:25.009Z,94574.40
2019-02-22T20:16:58.948Z,94569.89
2019-02-22T20:19:33.782Z,94566.15
2019-02-22T20:22:07.463Z,94560.15
2019-02-22T20:24:52.221Z,94561.41
2019-02-22T20:27:26.413Z,94557.42
2019-02-22T20:30:03.790Z,94554.38
2019-02-22T20:32:37.419Z,94550.41
2019-02-22T20:35:18.158Z,94550.28
2019-02-22T20:37:53.093Z,94560.97
2019-02-22T20:40:26.166Z,94554.75
2019-02-22T20:42:59.898Z,94554.19
2019-02-22T20:45:33.506Z,94546.88
2019-02-22T20:48:06.991Z,94547.80
2019-02-22T20:50:42.920Z,94543.45
2019-02-22T20:53:19.649Z,94541.70
2019-02-22T20:55:53.043Z,94542.97
2019-02-22T20:58:26.915Z,94552.72
2019-02-22T21:01:00.659Z,94550.89
2019-02-22T21:03:33.940Z,94548.02
2019-02-22T21:06:07.446Z,94538.03
2019-02-22T21:08:41.354Z,94539.29
2019-02-22T21:11:14.760Z,94544.40
2019-02-22T21:13:48.236Z,94551.63
2019-02-22T21:16:21.467Z,94543.75
2019-02-22T21:18:59.436Z,94544.07
2019-02-22T21:21:32.654Z,94541.31
2019-02-22T21:24:05.968Z,94542.57
2019-02-22T21:26:39.581Z,94533.95
2019-02-22T21:29:13.207Z,94533.67
2019-02-22T21:31:47.072Z,94527.84
2019-02-22T21:34:19.968Z,94532.58
2019-02-22T21:36:53.090Z,94535.30
2019-02-22T21:39:26.690Z,94544.02
2019-02-22T21:41:59.988Z,94538.21
2019-02-22T21:44:33.680Z,94544.47
2019-02-22T21:47:07.020Z,94547.81
2019-02-22T21:49:40.198Z,94550.58
2019-02-22T21:52:13.128Z,94555.73
2019-02-22T21:54:46.169Z,94547.61
2019-02-22T21:57:19.442Z,94553.22
2019-02-22T21:59:52.319Z,94547.84
2019-02-22T22:02:25.839Z,94552.64
2019-02-22T22:04:59.564Z,94556.09
2019-02-22T22:07:32.719Z,94555.12
2019-02-22T22:10:06.058Z,94554.91
2019-02-22T22:12:39.042Z,94555.09
2019-02-22T22:15:12.917Z,94556.70
2019-02-22T22:17:45.969Z,94560.55
2019-02-22T22:20:19.235Z,94563.19
2019-02-22T22:22:52.257Z,94561.01
2019-02-22T22:25:25.422Z,94568.34
2019-02-22T22:27:58.571Z,94576.92
2019-02-22T22:30:32.373Z,94580.05
2019-02-22T22:33:05.608Z,94588.89
2019-02-22T22:35:38.880Z,94596.61
2019-02-22T22:38:12.925Z,94600.95
2019-02-22T22:40:45.714Z,94618.20
2019-02-22T22:43:18.471Z,94649.42
2019-02-22T22:45:51.930Z,94681.78
2019-02-22T22:48:24.919Z,94682.63
2019-02-22T22:50:58.092Z,94699.70
2019-02-22T22:53:31.029Z,94722.09
2019-02-22T22:56:04.067Z,94739.10
2019-02-22T22:58:37.411Z,94753.28
2019-02-22T23:01:25.753Z,94759.95
2019-02-22T23:03:58.717Z,94766.68
2019-02-22T23:06:51.804Z,94780.08
2019-02-22T23:09:24.973Z,94777.73
2019-02-22T23:11:57.734Z,94780.29
2019-02-22T23:14:31.042Z,94800.77
2019-02-22T23:17:04.550Z,94823.06
2019-02-22T23:19:39.481Z,94841.19
2019-02-22T23:22:12.319Z,94853.33
2019-02-22T23:24:45.328Z,94867.47
2019-02-22T23:27:18.321Z,94885.91
2019-02-22T23:29:51.386Z,94894.08
2019-02-22T23:32:24.287Z,94910.09
2019-02-22T23:34:57.470Z,94913.67
2019-02-22T23:37:30.595Z,94927.97
2019-02-22T23:40:05.245Z,94937.50
2019-02-22T23:42:38.286Z,94946.18
2019-02-22T23:45:11.296Z,94969.28
2019-02-22T23:47:44.243Z,94981.47
2019-02-22T23:50:18.535Z,95001.02
2019-02-22T23:52:51.321Z,95003.96
2019-02-22T23:55:24.480Z,95010.08
2019-02-22T23:57:57.649Z,95021.98
